createdAt,value
2022-08-28T00:00:47.089Z,19.40
2022-08-28T00:03:15.592Z,19.38
2022-08-28T00:05:45.282Z,19.36
2022-08-28T00:08:13.087Z,19.34
2022-08-28T00:10:41.276Z,19.30
2022-08-28T00:13:09.055Z,19.27
2022-08-28T00:15:36.711Z,19.23
2022-08-28T00:18:05.002Z,19.19
2022-08-28T00:20:34.077Z,19.17
2022-08-28T00:23:01.820Z,19.15
2022-08-28T00:25:29.506Z,19.12
2022-08-28T00:27:57.484Z,19.10
2022-08-28T00:30:27.450Z,19.07
2022-08-28T00:32:55.259Z,19.06
2022-08-28T00:35:23.538Z,19.06
2022-08-28T00:37:51.964Z,19.05
2022-08-28T00:40:30.424Z,19.05
2022-08-28T00:43:01.105Z,19.02
2022-08-28T00:45:28.804Z,19.00
2022-08-28T00:47:56.846Z,18.95
2022-08-28T00:50:24.661Z,18.93
2022-08-28T00:52:51.334Z,18.94
2022-08-28T00:55:19.070Z,18.94
2022-08-28T00:57:48.730Z,18.94
2022-08-28T01:00:16.651Z,18.92
2022-08-28T01:02:44.555Z,18.91
2022-08-28T01:05:12.294Z,18.90
2022-08-28T01:07:39.962Z,18.88
2022-08-28T01:10:08.438Z,18.85
2022-08-28T01:12:36.031Z,18.86
2022-08-28T01:15:03.681Z,18.85
2022-08-28T01:17:31.381Z,18.84
2022-08-28T01:19:59.103Z,18.82
2022-08-28T01:22:26.941Z,18.79
2022-08-28T01:24:55.072Z,18.75
2022-08-28T01:27:25.106Z,18.69
2022-08-28T01:29:52.867Z,18.65
2022-08-28T01:32:20.674Z,18.63
2022-08-28T01:34:48.352Z,18.57
2022-08-28T01:37:16.019Z,18.52
2022-08-28T01:39:44.063Z,18.45
2022-08-28T01:42:11.788Z,18.42
2022-08-28T01:44:39.418Z,18.37
2022-08-28T01:47:07.129Z,18.31
2022-08-28T01:49:35.223Z,18.24
2022-08-28T01:52:03.432Z,18.16
2022-08-28T01:54:31.365Z,18.08
2022-08-28T01:56:59.030Z,18.00
2022-08-28T01:59:27.121Z,17.94
2022-08-28T02:01:55.497Z,17.91
2022-08-28T02:04:31.777Z,17.88
2022-08-28T02:07:00.060Z,17.86
2022-08-28T02:09:28.168Z,17.85
2022-08-28T02:11:57.568Z,17.85
2022-08-28T02:14:25.292Z,17.86
2022-08-28T02:16:53.155Z,17.88
2022-08-28T02:19:21.508Z,17.87
2022-08-28T02:21:49.180Z,17.84
2022-08-28T02:24:17.793Z,17.81
2022-08-28T02:26:45.787Z,17.78
2022-08-28T02:29:13.993Z,17.76
2022-08-28T02:31:41.639Z,17.74
2022-08-28T02:34:09.687Z,17.70
2022-08-28T02:36:37.309Z,17.63
2022-08-28T02:39:05.472Z,17.57
2022-08-28T02:41:33.102Z,17.55
2022-08-28T02:44:00.879Z,17.50
2022-08-28T02:46:28.598Z,17.49
2022-08-28T02:48:56.724Z,17.49
2022-08-28T02:51:24.438Z,17.51
2022-08-28T02:53:52.448Z,17.51
2022-08-28T02:56:20.173Z,17.49
2022-08-28T02:58:48.265Z,17.48
2022-08-28T03:01:15.981Z,17.47
2022-08-28T03:03:43.678Z,17.47
2022-08-28T03:06:12.382Z,17.43
2022-08-28T03:08:40.408Z,17.43
2022-08-28T03:11:08.221Z,17.41
2022-08-28T03:13:35.816Z,17.40
2022-08-28T03:16:04.940Z,17.40
2022-08-28T03:18:33.310Z,17.39
2022-08-28T03:21:00.979Z,17.37
2022-08-28T03:23:28.793Z,17.36
2022-08-28T03:25:56.457Z,17.33
2022-08-28T03:28:24.569Z,17.29
2022-08-28T03:30:52.377Z,17.27
2022-08-28T03:33:20.197Z,17.25
2022-08-28T03:35:47.783Z,17.21
2022-08-28T03:38:17.070Z,17.19
2022-08-28T03:40:45.085Z,17.16
2022-08-28T03:43:13.615Z,17.12
2022-08-28T03:45:41.255Z,17.14
2022-08-28T03:48:09.039Z,17.11
2022-08-28T03:50:37.452Z,17.10
2022-08-28T03:53:05.142Z,17.07
2022-08-28T03:55:32.837Z,17.05
2022-08-28T03:58:01.271Z,17.04
2022-08-28T04:00:29.537Z,16.97
2022-08-28T04:02:58.144Z,16.91
2022-08-28T04:05:25.864Z,16.86
2022-08-28T04:07:53.610Z,16.82
2022-08-28T04:10:21.808Z,16.75
2022-08-28T04:12:49.503Z,16.69
2022-08-28T04:15:17.212Z,16.65
2022-08-28T04:17:44.905Z,16.62
2022-08-28T04:20:12.554Z,16.59
2022-08-28T04:22:40.292Z,16.53
2022-08-28T04:25:08.318Z,16.47
2022-08-28T04:27:36.039Z,16.41
2022-08-28T04:30:03.705Z,16.36
2022-08-28T04:32:31.385Z,16.31
2022-08-28T04:34:59.115Z,16.23
2022-08-28T04:37:27.977Z,16.18
2022-08-28T04:39:56.275Z,16.12
2022-08-28T04:42:24.053Z,16.07
2022-08-28T04:44:51.659Z,16.04
2022-08-28T04:47:19.310Z,16.01
2022-08-28T04:49:47.393Z,15.99
2022-08-28T04:52:15.128Z,15.98
2022-08-28T04:54:42.935Z,15.96
2022-08-28T04:57:10.637Z,15.96
2022-08-28T04:59:39.240Z,15.99
2022-08-28T05:02:07.056Z,16.01
2022-08-28T05:04:34.834Z,16.05
2022-08-28T05:07:02.569Z,16.08
2022-08-28T05:09:32.212Z,16.13
2022-08-28T05:11:59.964Z,16.17
2022-08-28T05:14:27.616Z,16.25
2022-08-28T05:16:57.750Z,16.32
2022-08-28T05:19:26.094Z,16.39
2022-08-28T05:21:53.775Z,16.51
2022-08-28T05:24:21.485Z,16.57
2022-08-28T05:26:49.275Z,16.62
2022-08-28T05:29:18.004Z,16.66
2022-08-28T05:31:45.724Z,16.70
2022-08-28T05:34:14.079Z,16.75
2022-08-28T05:36:41.884Z,16.83
2022-08-28T05:39:09.887Z,16.89
2022-08-28T05:41:37.579Z,16.98
2022-08-28T05:44:05.272Z,17.01
2022-08-28T05:46:32.969Z,17.03
2022-08-28T05:49:01.069Z,17.07
2022-08-28T05:51:28.684Z,17.14
2022-08-28T05:53:56.360Z,17.15
2022-08-28T05:56:23.973Z,17.17
2022-08-28T05:58:52.116Z,17.21
2022-08-28T06:01:19.738Z,17.23
2022-08-28T06:03:47.670Z,17.27
2022-08-28T06:06:15.313Z,17.32
2022-08-28T06:08:56.201Z,17.36
2022-08-28T06:11:27.014Z,17.38
2022-08-28T06:13:58.173Z,17.43
2022-08-28T06:16:26.166Z,17.47
2022-08-28T06:18:53.919Z,17.54
2022-08-28T06:21:21.926Z,17.57
2022-08-28T06:23:49.534Z,17.56
2022-08-28T06:26:17.652Z,17.56
2022-08-28T06:28:45.318Z,17.57
2022-08-28T06:31:24.358Z,17.64
2022-08-28T06:33:54.140Z,17.70
2022-08-28T06:36:21.995Z,17.70
2022-08-28T06:38:51.258Z,17.72
2022-08-28T06:41:19.841Z,17.78
2022-08-28T06:43:47.505Z,17.86
2022-08-28T06:46:15.348Z,17.95
2022-08-28T06:48:43.057Z,18.05
2022-08-28T06:51:10.795Z,18.11
2022-08-28T06:53:38.481Z,18.20
2022-08-28T06:56:08.441Z,18.28
2022-08-28T06:58:36.138Z,18.34
2022-08-28T07:01:03.861Z,18.42
2022-08-28T07:03:31.945Z,18.51
2022-08-28T07:05:59.687Z,18.59
2022-08-28T07:08:27.344Z,18.66
2022-08-28T07:10:55.417Z,18.69
2022-08-28T07:13:23.332Z,18.75
2022-08-28T07:15:51.061Z,18.80
2022-08-28T07:18:18.794Z,18.87
2022-08-28T07:20:46.517Z,18.95
2022-08-28T07:23:14.193Z,18.99
2022-08-28T07:25:42.783Z,19.03
2022-08-28T07:28:10.471Z,19.05
2022-08-28T07:30:38.152Z,19.08
2022-08-28T07:33:05.767Z,19.09
2022-08-28T07:35:33.500Z,19.09
2022-08-28T07:38:01.135Z,19.09
2022-08-28T07:40:29.329Z,19.11
2022-08-28T07:43:14.664Z,19.13
2022-08-28T07:45:42.609Z,19.12
2022-08-28T07:48:11.640Z,19.15
2022-08-28T07:50:39.543Z,19.20
2022-08-28T07:53:09.164Z,19.29
2022-08-28T07:55:36.863Z,19.48
2022-08-28T07:58:05.980Z,19.80
2022-08-28T08:00:33.703Z,20.07
2022-08-28T08:03:01.379Z,20.29
2022-08-28T08:05:29.152Z,20.46
2022-08-28T08:07:56.786Z,20.55
2022-08-28T08:10:24.519Z,20.59
2022-08-28T08:12:52.540Z,20.56
2022-08-28T08:15:21.324Z,20.57
2022-08-28T08:17:49.395Z,20.65
2022-08-28T08:20:17.971Z,20.83
2022-08-28T08:22:45.691Z,21.01
2022-08-28T08:25:13.433Z,21.14
2022-08-28T08:27:43.067Z,21.20
2022-08-28T08:30:11.527Z,21.21
2022-08-28T08:32:40.170Z,21.25
2022-08-28T08:35:08.013Z,21.24
2022-08-28T08:37:35.753Z,21.10
2022-08-28T08:40:06.474Z,20.88
2022-08-28T08:42:38.444Z,20.84
2022-08-28T08:45:07.473Z,20.91
2022-08-28T08:47:35.149Z,21.07
2022-08-28T08:50:02.946Z,21.30
2022-08-28T08:52:30.649Z,21.49
2022-08-28T08:54:59.475Z,21.70
2022-08-28T08:57:27.181Z,21.85
2022-08-28T08:59:54.858Z,21.96
2022-08-28T09:02:22.624Z,22.04
2022-08-28T09:04:59.003Z,22.08
2022-08-28T09:07:26.718Z,22.13
2022-08-28T09:09:54.879Z,22.17
2022-08-28T09:12:23.247Z,22.27
2022-08-28T09:14:50.870Z,22.26
2022-08-28T09:17:18.576Z,22.28
2022-08-28T09:19:46.755Z,22.36
2022-08-28T09:22:14.762Z,22.36
2022-08-28T09:24:42.501Z,22.43
2022-08-28T09:27:14.296Z,22.64
2022-08-28T09:29:43.505Z,22.89
2022-08-28T09:32:11.516Z,23.12
2022-08-28T09:34:39.367Z,23.43
2022-08-28T09:37:08.387Z,23.68
2022-08-28T09:39:37.184Z,23.78
2022-08-28T09:42:22.483Z,23.92
2022-08-28T09:44:51.851Z,24.06
2022-08-28T09:47:20.170Z,24.04
2022-08-28T09:49:48.157Z,23.95
2022-08-28T09:52:15.943Z,23.86
2022-08-28T09:54:44.832Z,23.78
2022-08-28T09:57:12.834Z,23.68
2022-08-28T09:59:40.729Z,23.52
2022-08-28T10:02:10.686Z,23.45
2022-08-28T10:04:38.734Z,23.36
2022-08-28T10:07:06.526Z,23.52
2022-08-28T10:09:34.643Z,23.67
2022-08-28T10:12:02.319Z,23.81
2022-08-28T10:14:30.078Z,24.07
2022-08-28T10:16:57.819Z,24.53
2022-08-28T10:19:25.920Z,25.22
2022-08-28T10:21:53.587Z,25.94
2022-08-28T10:24:24.262Z,26.52
2022-08-28T10:26:55.431Z,27.04
2022-08-28T10:29:23.881Z,27.25
2022-08-28T10:31:51.583Z,27.37
2022-08-28T10:34:19.248Z,27.84
2022-08-28T10:36:46.912Z,28.46
2022-08-28T10:39:14.947Z,29.02
2022-08-28T10:41:42.562Z,29.58
2022-08-28T10:44:10.257Z,30.17
2022-08-28T10:46:37.995Z,30.79
2022-08-28T10:49:07.080Z,31.34
2022-08-28T10:51:36.318Z,31.75
2022-08-28T10:54:06.130Z,32.04
2022-08-28T10:56:33.877Z,32.19
2022-08-28T10:59:02.053Z,32.45
2022-08-28T11:01:29.843Z,32.85
2022-08-28T11:03:57.639Z,33.07
2022-08-28T11:06:25.799Z,33.16
2022-08-28T11:08:53.849Z,33.40
2022-08-28T11:11:21.501Z,33.72
2022-08-28T11:13:49.195Z,33.90
2022-08-28T11:16:17.302Z,34.08
2022-08-28T11:18:45.505Z,34.27
2022-08-28T11:21:13.220Z,34.32
2022-08-28T11:23:40.949Z,34.55
2022-08-28T11:26:09.136Z,34.81
2022-08-28T11:28:36.854Z,34.91
2022-08-28T11:31:04.676Z,35.03
2022-08-28T11:33:32.632Z,35.16
2022-08-28T11:36:00.332Z,35.23
2022-08-28T11:38:27.951Z,35.16
2022-08-28T11:40:56.128Z,35.22
2022-08-28T11:43:23.926Z,34.94
2022-08-28T11:45:51.651Z,34.62
2022-08-28T11:48:19.456Z,34.87
2022-08-28T11:50:48.646Z,35.24
2022-08-28T11:53:16.413Z,35.53
2022-08-28T11:55:44.056Z,35.50
2022-08-28T12:00:38.914Z,35.60
2022-08-28T12:03:06.674Z,35.62
2022-08-28T12:05:34.389Z,35.66
2022-08-28T12:08:02.544Z,35.76
2022-08-28T12:10:31.693Z,36.02
2022-08-28T12:12:59.434Z,36.06
2022-08-28T12:15:27.315Z,35.71
2022-08-28T12:17:54.985Z,34.95
2022-08-28T12:20:23.004Z,34.96
2022-08-28T12:22:53.180Z,35.30
2022-08-28T12:25:20.893Z,35.65
2022-08-28T12:27:48.641Z,35.87
2022-08-28T12:30:16.767Z,36.01
2022-08-28T12:32:44.469Z,35.98
2022-08-28T12:35:12.222Z,35.85
2022-08-28T12:37:52.347Z,35.75
2022-08-28T12:40:21.348Z,35.66
2022-08-28T12:42:53.147Z,35.56
2022-08-28T12:45:23.154Z,35.15
2022-08-28T12:47:51.030Z,34.42
2022-08-28T12:50:18.722Z,33.90
2022-08-28T12:52:46.541Z,33.35
2022-08-28T12:55:14.696Z,32.85
2022-08-28T12:57:42.467Z,32.05
2022-08-28T13:00:10.345Z,31.38
2022-08-28T13:02:38.124Z,31.03
2022-08-28T13:05:05.884Z,30.64
2022-08-28T13:07:34.190Z,30.19
2022-08-28T13:10:03.624Z,29.90
2022-08-28T13:12:54.460Z,29.74
2022-08-28T13:15:24.138Z,29.58
2022-08-28T13:17:52.387Z,29.45
2022-08-28T13:20:20.115Z,29.27
2022-08-28T13:22:50.891Z,28.90
2022-08-28T13:25:19.206Z,28.32
2022-08-28T13:27:46.903Z,28.12
2022-08-28T13:30:14.624Z,28.15
2022-08-28T13:32:42.312Z,28.19
2022-08-28T13:35:10.092Z,28.21
2022-08-28T13:37:37.764Z,28.29
2022-08-28T13:40:13.000Z,28.38
2022-08-28T13:42:47.556Z,28.62
2022-08-28T13:45:15.246Z,28.76
2022-08-28T13:47:43.786Z,28.92
2022-08-28T13:50:11.637Z,28.87
2022-08-28T13:52:39.301Z,28.83
2022-08-28T13:55:08.483Z,28.85
2022-08-28T13:57:38.440Z,28.82
2022-08-28T14:00:06.088Z,28.85
2022-08-28T14:02:51.489Z,28.98
2022-08-28T14:05:19.720Z,29.32
2022-08-28T14:07:49.062Z,29.61
2022-08-28T14:10:16.716Z,29.97
2022-08-28T14:12:46.931Z,30.31
2022-08-28T14:15:14.665Z,30.41
2022-08-28T14:17:42.667Z,30.37
2022-08-28T14:20:10.313Z,30.40
2022-08-28T14:22:38.490Z,30.35
2022-08-28T14:25:06.278Z,30.49
2022-08-28T14:27:34.381Z,30.70
2022-08-28T14:30:02.123Z,30.74
2022-08-28T14:32:29.839Z,30.46
2022-08-28T14:34:57.678Z,30.33
2022-08-28T14:37:25.814Z,29.96
2022-08-28T14:39:53.504Z,30.05
2022-08-28T14:42:21.312Z,30.41
2022-08-28T14:44:49.081Z,30.66
2022-08-28T14:47:17.299Z,30.80
2022-08-28T14:49:45.122Z,30.97
2022-08-28T14:52:12.844Z,31.15
2022-08-28T14:54:40.731Z,30.92
2022-08-28T14:57:08.411Z,30.91
2022-08-28T14:59:36.389Z,31.05
2022-08-28T15:02:04.215Z,31.33
2022-08-28T15:04:34.867Z,31.45
2022-08-28T15:07:03.052Z,31.42
2022-08-28T15:09:30.748Z,31.35
2022-08-28T15:11:58.472Z,31.36
2022-08-28T15:14:26.152Z,31.54
2022-08-28T15:16:54.648Z,31.61
2022-08-28T15:19:23.537Z,31.80
2022-08-28T15:21:51.304Z,31.88
2022-08-28T15:24:19.040Z,32.05
2022-08-28T15:26:47.161Z,32.39
2022-08-28T15:29:15.137Z,32.66
2022-08-28T15:31:43.392Z,32.89
2022-08-28T15:34:13.839Z,33.15
2022-08-28T15:36:44.037Z,33.40
2022-08-28T15:39:29.162Z,33.51
2022-08-28T15:41:56.954Z,33.63
2022-08-28T15:44:25.530Z,33.64
2022-08-28T15:46:53.442Z,33.65
2022-08-28T15:49:23.708Z,33.64
2022-08-28T15:51:52.324Z,33.78
2022-08-28T15:54:20.301Z,33.91
2022-08-28T15:56:49.788Z,33.97
2022-08-28T15:59:20.498Z,34.00
2022-08-28T16:01:48.217Z,33.98
2022-08-28T16:04:16.155Z,34.06
2022-08-28T16:06:43.957Z,34.00
2022-08-28T16:09:12.119Z,34.08
2022-08-28T16:11:41.185Z,33.98
2022-08-28T16:14:08.992Z,33.76
2022-08-28T16:16:36.746Z,32.72
2022-08-28T16:19:04.754Z,31.24
2022-08-28T16:21:32.597Z,30.08
2022-08-28T16:24:00.743Z,29.03
2022-08-28T16:26:28.457Z,28.23
2022-08-28T16:28:56.113Z,27.59
2022-08-28T16:31:23.955Z,27.02
2022-08-28T16:33:51.700Z,26.59
2022-08-28T16:36:19.897Z,26.22
2022-08-28T16:39:00.460Z,25.91
2022-08-28T16:41:31.994Z,25.63
2022-08-28T16:43:59.847Z,25.39
2022-08-28T16:46:28.340Z,25.12
2022-08-28T16:48:56.245Z,24.90
2022-08-28T16:51:27.006Z,24.69
2022-08-28T16:53:54.788Z,24.49
2022-08-28T16:56:23.786Z,24.33
2022-08-28T16:58:53.287Z,24.20
2022-08-28T17:01:22.378Z,24.09
2022-08-28T17:03:52.115Z,23.99
2022-08-28T17:06:19.879Z,23.89
2022-08-28T17:08:48.140Z,23.78
2022-08-28T17:11:15.991Z,23.69
2022-08-28T17:13:43.620Z,23.59
2022-08-28T17:16:11.358Z,23.50
2022-08-28T17:18:39.418Z,23.39
2022-08-28T17:21:32.448Z,23.28
2022-08-28T17:24:00.179Z,23.18
2022-08-28T17:26:28.229Z,23.09
2022-08-28T17:28:55.879Z,23.00
2022-08-28T17:31:23.734Z,22.90
2022-08-28T17:33:51.740Z,22.82
2022-08-28T17:36:32.798Z,22.75
2022-08-28T17:39:02.235Z,22.66
2022-08-28T17:41:29.989Z,22.59
2022-08-28T17:43:57.737Z,22.51
2022-08-28T17:46:26.000Z,22.43
2022-08-28T17:48:55.619Z,22.36
2022-08-28T17:51:42.702Z,22.28
2022-08-28T17:54:12.050Z,22.20
2022-08-28T17:56:40.404Z,22.10
2022-08-28T17:59:08.067Z,22.01
2022-08-28T18:01:36.274Z,21.93
2022-08-28T18:04:05.267Z,21.86
2022-08-28T18:06:33.499Z,21.78
2022-08-28T18:09:02.683Z,21.71
2022-08-28T18:11:30.432Z,21.63
2022-08-28T18:13:59.864Z,21.54
2022-08-28T18:16:31.438Z,21.46
2022-08-28T18:18:59.928Z,21.39
2022-08-28T18:21:27.647Z,21.31
2022-08-28T18:23:55.367Z,21.22
2022-08-28T18:26:23.032Z,21.14
2022-08-28T18:28:51.144Z,21.07
2022-08-28T18:31:18.920Z,21.00
2022-08-28T18:33:46.724Z,20.92
2022-08-28T18:36:14.498Z,20.84
2022-08-28T18:38:42.166Z,20.77
2022-08-28T18:41:10.657Z,20.70
2022-08-28T18:43:38.350Z,20.62
2022-08-28T18:46:06.069Z,20.56
2022-08-28T18:48:33.813Z,20.48
2022-08-28T18:51:01.924Z,20.41
2022-08-28T18:53:30.048Z,20.34
2022-08-28T18:55:57.833Z,20.27
2022-08-28T18:58:29.644Z,20.20
2022-08-28T19:00:58.405Z,20.11
2022-08-28T19:03:26.156Z,20.05
2022-08-28T19:05:55.132Z,20.02
2022-08-28T19:08:22.916Z,19.97
2022-08-28T19:10:50.994Z,19.92
2022-08-28T19:13:18.759Z,19.87
2022-08-28T19:15:46.524Z,19.81
2022-08-28T19:18:14.425Z,19.75
2022-08-28T19:20:43.593Z,19.69
2022-08-28T19:23:15.442Z,19.64
2022-08-28T19:25:44.969Z,19.58
2022-08-28T19:28:12.822Z,19.54
2022-08-28T19:30:41.027Z,19.51
2022-08-28T19:33:08.865Z,19.46
2022-08-28T19:35:36.569Z,19.41
2022-08-28T19:38:04.311Z,19.37
2022-08-28T19:40:33.790Z,19.34
2022-08-28T19:43:01.576Z,19.29
2022-08-28T19:45:29.866Z,19.25
2022-08-28T19:47:57.611Z,19.21
2022-08-28T19:50:25.671Z,19.17
2022-08-28T19:52:53.438Z,19.14
2022-08-28T19:55:21.073Z,19.10
2022-08-28T19:57:49.551Z,19.07
2022-08-28T20:00:19.033Z,19.02
2022-08-28T20:02:46.960Z,18.98
2022-08-28T20:05:14.857Z,18.94
2022-08-28T20:07:42.557Z,18.88
2022-08-28T20:10:10.751Z,18.87
2022-08-28T20:12:38.741Z,18.84
2022-08-28T20:15:13.421Z,18.81
2022-08-28T20:17:45.389Z,18.77
2022-08-28T20:20:17.983Z,18.75
2022-08-28T20:22:45.828Z,18.70
2022-08-28T20:25:13.488Z,18.67
2022-08-28T20:27:42.986Z,18.63
2022-08-28T20:30:11.331Z,18.59
2022-08-28T20:32:40.714Z,18.58
2022-08-28T20:35:09.079Z,18.53
2022-08-28T20:37:45.088Z,18.48
2022-08-28T20:40:13.771Z,18.43
2022-08-28T20:42:41.532Z,18.40
2022-08-28T20:45:09.320Z,18.37
2022-08-28T20:47:37.385Z,18.33
2022-08-28T20:50:05.026Z,18.29
2022-08-28T20:52:32.730Z,18.26
2022-08-28T20:55:00.535Z,18.23
2022-08-28T20:57:28.575Z,18.17
2022-08-28T20:59:56.443Z,18.12
2022-08-28T21:02:24.099Z,18.07
2022-08-28T21:04:52.087Z,17.99
2022-08-28T21:07:20.215Z,17.91
2022-08-28T21:10:05.424Z,17.84
2022-08-28T21:12:35.182Z,17.80
2022-08-28T21:15:04.462Z,17.76
2022-08-28T21:17:32.137Z,17.70
2022-08-28T21:20:00.413Z,17.64
2022-08-28T21:22:28.154Z,17.56
2022-08-28T21:24:57.300Z,17.47
2022-08-28T21:27:24.946Z,17.39
2022-08-28T21:29:52.629Z,17.30
2022-08-28T21:32:20.429Z,17.21
2022-08-28T21:34:48.120Z,17.14
2022-08-28T21:37:15.769Z,17.05
2022-08-28T21:39:43.949Z,16.98
2022-08-28T21:42:11.757Z,16.90
2022-08-28T21:44:39.471Z,16.82
2022-08-28T21:47:08.906Z,16.76
2022-08-28T21:49:37.745Z,16.68
2022-08-28T21:52:06.126Z,16.61
2022-08-28T21:54:33.707Z,16.53
2022-08-28T21:57:01.600Z,16.48
2022-08-28T21:59:35.949Z,16.43
2022-08-28T22:02:05.529Z,16.38
2022-08-28T22:04:33.179Z,16.32
2022-08-28T22:07:00.931Z,16.27
2022-08-28T22:09:29.230Z,16.23
2022-08-28T22:11:57.320Z,16.19
2022-08-28T22:14:26.018Z,16.16
2022-08-28T22:16:53.764Z,16.13
2022-08-28T22:19:21.451Z,16.06
2022-08-28T22:22:21.354Z,16.00
2022-08-28T22:24:49.070Z,15.92
2022-08-28T22:27:17.074Z,15.85
2022-08-28T22:29:45.116Z,15.76
2022-08-28T22:32:12.934Z,15.69
2022-08-28T22:34:40.572Z,15.63
2022-08-28T22:37:08.235Z,15.58
2022-08-28T22:39:36.651Z,15.54
2022-08-28T22:42:04.323Z,15.50
2022-08-28T22:44:32.073Z,15.49
2022-08-28T22:46:59.690Z,15.44
2022-08-28T22:49:27.848Z,15.39
2022-08-28T22:51:55.472Z,15.30
2022-08-28T22:54:23.149Z,15.22
2022-08-28T22:56:50.820Z,15.14
2022-08-28T22:59:19.318Z,15.09
2022-08-28T23:01:47.006Z,15.03
2022-08-28T23:04:14.835Z,14.93
2022-08-28T23:06:42.529Z,14.83
2022-08-28T23:09:11.656Z,14.72
2022-08-28T23:11:39.464Z,14.63
2022-08-28T23:14:07.140Z,14.55
2022-08-28T23:16:35.316Z,14.51
2022-08-28T23:19:08.704Z,14.49
2022-08-28T23:21:39.219Z,14.46
2022-08-28T23:24:11.369Z,14.43
2022-08-28T23:26:39.460Z,14.34
2022-08-28T23:29:07.082Z,14.23
2022-08-28T23:31:34.774Z,14.14
2022-08-28T23:34:02.687Z,14.07
2022-08-28T23:36:32.648Z,14.00
2022-08-28T23:39:03.728Z,13.95
2022-08-28T23:41:31.413Z,13.91
2022-08-28T23:43:59.231Z,13.88
2022-08-28T23:46:27.024Z,13.85
2022-08-28T23:48:55.168Z,13.83
2022-08-28T23:51:23.004Z,13.78
2022-08-28T23:53:52.986Z,13.72
2022-08-28T23:56:20.714Z,13.65
2022-08-28T23:58:51.145Z,13.59
